createdAt,value
2018-09-25T00:04:12.129Z,99.900002
2018-09-25T00:09:14.308Z,99.900002
2018-09-25T00:14:16.588Z,99.900002
2018-09-25T00:19:19.116Z,99.900002
2018-09-25T00:24:21.302Z,99.900002
2018-09-25T00:29:23.474Z,99.900002
2018-09-25T00:34:25.876Z,99.900002
2018-09-25T00:39:28.124Z,99.900002
2018-09-25T00:44:30.431Z,99.900002
2018-09-25T00:49:32.648Z,99.900002
2018-09-25T00:54:34.909Z,99.900002
2018-09-25T00:59:37.196Z,99.900002
2018-09-25T01:04:39.539Z,99.900002
2018-09-25T01:09:41.857Z,99.900002
2018-09-25T01:14:44.272Z,99.900002
2018-09-25T01:19:46.507Z,99.900002
2018-09-25T01:24:48.725Z,99.900002
2018-09-25T01:29:51.018Z,99.900002
2018-09-25T01:34:53.284Z,99.900002
2018-09-25T01:39:55.628Z,99.900002
2018-09-25T01:44:57.895Z,99.900002
2018-09-25T01:50:00.233Z,99.900002
2018-09-25T01:55:02.500Z,99.900002
2018-09-25T02:00:04.761Z,99.900002
2018-09-25T02:05:07.110Z,99.900002
2018-09-25T02:10:09.350Z,99.900002
2018-09-25T02:15:11.685Z,99.900002
2018-09-25T02:20:13.939Z,99.900002
2018-09-25T02:25:16.276Z,99.900002
2018-09-25T02:30:18.509Z,99.900002
2018-09-25T02:35:20.841Z,99.900002
2018-09-25T02:40:23.145Z,99.900002
2018-09-25T02:45:25.507Z,99.900002
2018-09-25T02:50:27.698Z,99.900002
2018-09-25T02:55:29.998Z,99.900002
2018-09-25T03:00:32.377Z,99.900002
2018-09-25T03:05:34.649Z,99.900002
2018-09-25T03:10:37.052Z,99.900002
2018-09-25T03:15:39.141Z,99.900002
2018-09-25T03:20:41.523Z,99.900002
2018-09-25T03:25:43.765Z,99.900002
2018-09-25T03:30:46.066Z,99.900002
2018-09-25T03:35:48.444Z,99.900002
2018-09-25T03:40:50.661Z,99.900002
2018-09-25T03:45:52.961Z,99.900002
2018-09-25T03:50:55.219Z,99.900002
2018-09-25T03:55:57.579Z,99.900002
2018-09-25T04:00:59.849Z,99.900002
2018-09-25T04:06:02.087Z,99.900002
2018-09-25T04:11:04.427Z,99.900002
2018-09-25T04:16:06.810Z,99.900002
2018-09-25T04:21:08.954Z,99.900002
2018-09-25T04:26:11.389Z,99.900002
2018-09-25T04:31:13.737Z,99.900002
2018-09-25T04:36:15.932Z,99.900002
2018-09-25T04:41:18.146Z,99.900002
2018-09-25T04:46:20.447Z,99.900002
2018-09-25T04:51:22.768Z,99.900002
2018-09-25T04:56:25.119Z,99.900002
2018-09-25T05:01:27.460Z,99.900002
2018-09-25T05:06:29.762Z,99.900002
2018-09-25T05:11:31.939Z,99.900002
2018-09-25T05:16:34.279Z,99.900002
2018-09-25T05:21:36.598Z,99.900002
2018-09-25T05:26:38.813Z,99.900002
2018-09-25T05:31:41.148Z,99.900002
2018-09-25T05:36:43.524Z,99.900002
2018-09-25T05:41:45.665Z,99.900002
2018-09-25T05:46:48.014Z,99.900002
2018-09-25T05:51:50.354Z,99.900002
2018-09-25T05:56:52.552Z,99.900002
2018-09-25T06:01:54.818Z,99.900002
2018-09-25T06:06:57.210Z,99.900002
2018-09-25T06:11:59.495Z,99.900002
2018-09-25T06:17:01.705Z,99.900002
2018-09-25T06:22:04.175Z,99.900002
2018-09-25T06:32:08.606Z,99.900002
2018-09-25T06:37:10.961Z,99.900002
2018-09-25T06:42:13.383Z,99.900002
2018-09-25T06:47:15.600Z,99.900002
2018-09-25T06:52:17.850Z,99.900002
2018-09-25T06:57:20.168Z,99.900002
2018-09-25T07:02:22.411Z,99.900002
2018-09-25T07:07:24.740Z,99.900002
2018-09-25T07:12:26.942Z,99.900002
2018-09-25T07:17:29.488Z,99.900002
2018-09-25T07:22:31.612Z,99.900002
2018-09-25T07:27:33.877Z,99.900002
2018-09-25T07:32:36.123Z,99.900002
2018-09-25T07:37:38.592Z,99.900002
2018-09-25T07:42:40.745Z,99.900002
2018-09-25T07:47:43.063Z,99.900002
2018-09-25T07:52:45.454Z,99.900002
2018-09-25T07:57:47.595Z,99.900002
2018-09-25T08:02:49.970Z,98.699997
2018-09-25T08:07:52.328Z,99.800003
2018-09-25T08:12:54.721Z,96.599998
2018-09-25T08:17:56.972Z,95.599998
2018-09-25T08:22:59.034Z,95.400002
2018-09-25T08:28:01.443Z,89.099998
2018-09-25T08:33:03.744Z,90.099998
2018-09-25T08:38:06.008Z,90.400002
2018-09-25T08:43:08.318Z,89.199997
2018-09-25T08:48:10.710Z,87.599998
2018-09-25T08:53:12.931Z,85.599998
2018-09-25T08:58:15.252Z,82.099998
2018-09-25T09:03:17.473Z,81.099998
2018-09-25T09:08:19.778Z,78
2018-09-25T09:13:22.069Z,78.199997
2018-09-25T09:18:24.430Z,77
2018-09-25T09:23:26.612Z,75.900002
2018-09-25T09:28:28.953Z,75.099998
2018-09-25T09:33:31.238Z,72.800003
2018-09-25T09:38:33.504Z,76
2018-09-25T09:43:35.843Z,73.900002
2018-09-25T09:48:38.164Z,70.900002
2018-09-25T09:53:40.504Z,67.800003
2018-09-25T09:58:42.718Z,67.599998
2018-09-25T10:03:45.016Z,63.5
2018-09-25T10:08:47.386Z,61.200001
2018-09-25T10:13:49.626Z,63.900002
2018-09-25T10:18:52.079Z,64.199997
2018-09-25T10:23:54.224Z,63.200001
2018-09-25T10:28:56.527Z,59.299999
2018-09-25T10:33:58.821Z,57.799999
2018-09-25T10:39:01.042Z,59.700001
2018-09-25T10:44:03.286Z,59.299999
2018-09-25T10:49:05.643Z,55.400002
2018-09-25T10:54:07.887Z,47.799999
2018-09-25T10:59:10.246Z,49.799999
2018-09-25T11:04:12.573Z,50.5
2018-09-25T11:09:14.788Z,48.299999
2018-09-25T11:14:17.147Z,54.099998
2018-09-25T11:19:19.410Z,45.299999
2018-09-25T11:24:21.980Z,44.200001
2018-09-25T11:29:23.960Z,42.299999
2018-09-25T11:34:26.330Z,41.400002
2018-09-25T11:39:28.516Z,43.5
2018-09-25T11:44:30.964Z,36.700001
2018-09-25T11:49:33.224Z,36.900002
2018-09-25T11:54:35.468Z,34.900002
2018-09-25T11:59:37.766Z,36.700001
2018-09-25T12:04:40.163Z,39.5
2018-09-25T12:09:42.413Z,41.200001
2018-09-25T12:14:44.582Z,39.400002
2018-09-25T12:19:46.915Z,33.5
2018-09-25T12:24:49.160Z,34.400002
2018-09-25T12:29:51.553Z,35.299999
2018-09-25T12:39:56.196Z,38
2018-09-25T12:44:58.444Z,33.400002
2018-09-25T12:50:00.688Z,32.700001
2018-09-25T12:55:02.936Z,36.599998
2018-09-25T13:00:05.352Z,36.700001
2018-09-25T13:05:07.530Z,40.099998
2018-09-25T13:10:09.845Z,36
2018-09-25T13:15:12.188Z,35.5
2018-09-25T13:20:14.475Z,36.299999
2018-09-25T13:25:16.695Z,37
2018-09-25T13:30:19.143Z,36.900002
2018-09-25T13:35:21.374Z,35.700001
2018-09-25T13:40:23.566Z,37.5
2018-09-25T13:45:25.932Z,40.200001
2018-09-25T13:50:28.319Z,44.799999
2018-09-25T13:55:30.607Z,36.400002
2018-09-25T14:00:32.827Z,34.400002
2018-09-25T14:05:35.104Z,35.700001
2018-09-25T14:10:37.463Z,38.200001
2018-09-25T14:15:39.605Z,39.299999
2018-09-25T14:20:42.067Z,38.599998
2018-09-25T14:25:44.440Z,37.700001
2018-09-25T14:30:46.591Z,34.799999
2018-09-25T14:35:48.934Z,35.599998
2018-09-25T14:40:51.116Z,35.400002
2018-09-25T14:45:53.463Z,35.200001
2018-09-25T14:50:55.841Z,39.599998
2018-09-25T14:55:58.088Z,37.299999
2018-09-25T15:01:00.321Z,36.799999
2018-09-25T15:06:02.844Z,35.799999
2018-09-25T15:11:04.957Z,38.599998
2018-09-25T15:16:07.177Z,38.400002
2018-09-25T15:21:09.620Z,38.900002
2018-09-25T15:26:11.798Z,36.700001
2018-09-25T15:31:14.120Z,36.299999
2018-09-25T15:36:16.360Z,34.099998
2018-09-25T15:41:18.740Z,33.599998
2018-09-25T15:46:20.977Z,35.799999
2018-09-25T15:51:23.373Z,34.099998
2018-09-25T15:56:25.681Z,34.099998
2018-09-25T16:01:27.813Z,36
2018-09-25T16:06:30.136Z,36.099998
2018-09-25T16:11:32.625Z,39.099998
2018-09-25T16:16:34.901Z,38.099998
2018-09-25T16:21:37.219Z,42.400002
2018-09-25T16:26:39.413Z,47.200001
2018-09-25T16:31:41.603Z,41
2018-09-25T16:36:43.875Z,47.400002
2018-09-25T16:41:46.241Z,55.299999
2018-09-25T16:46:48.475Z,58.400002
2018-09-25T16:51:50.831Z,62.5
2018-09-25T16:56:53.190Z,60.200001
2018-09-25T17:01:55.376Z,60.400002
2018-09-25T17:06:57.713Z,60.200001
2018-09-25T17:11:59.970Z,70.5
2018-09-25T17:17:02.390Z,67.900002
2018-09-25T17:22:04.638Z,67.199997
2018-09-25T17:27:06.875Z,73
2018-09-25T17:32:09.243Z,72.199997
2018-09-25T17:37:11.481Z,73.099998
2018-09-25T17:42:13.782Z,75.800003
2018-09-25T17:47:15.992Z,77
2018-09-25T17:52:18.484Z,77.5
2018-09-25T17:57:20.697Z,78.400002
2018-09-25T18:02:22.972Z,81
2018-09-25T18:07:25.327Z,82.800003
2018-09-25T18:12:27.468Z,80.599998
2018-09-25T18:17:29.797Z,83.400002
2018-09-25T18:22:32.227Z,84.099998
2018-09-25T18:27:34.435Z,84.199997
2018-09-25T18:37:38.941Z,85.400002
2018-09-25T18:42:41.346Z,86.099998
2018-09-25T18:47:43.536Z,88.400002
2018-09-25T18:52:45.890Z,88.800003
2018-09-25T18:57:48.298Z,88.199997
2018-09-25T19:02:50.475Z,88.300003
2018-09-25T19:07:52.759Z,88.900002
2018-09-25T19:12:55.073Z,90
2018-09-25T19:17:57.451Z,89.599998
2018-09-25T19:22:59.600Z,90.099998
2018-09-25T19:28:01.974Z,90.599998
2018-09-25T19:33:04.225Z,90.599998
2018-09-25T19:38:06.706Z,92.699997
2018-09-25T19:43:08.740Z,92.199997
2018-09-25T19:48:11.043Z,94
2018-09-25T19:53:13.387Z,98.300003
2018-09-25T19:58:15.717Z,94.900002
2018-09-25T20:03:18.009Z,94.099998
2018-09-25T20:08:20.300Z,94.5
2018-09-25T20:13:22.765Z,94.599998
2018-09-25T20:18:24.963Z,96.5
2018-09-25T20:23:27.198Z,95.199997
2018-09-25T20:28:29.505Z,94.800003
2018-09-25T20:33:31.779Z,99.5
2018-09-25T20:38:34.013Z,99.900002
2018-09-25T20:43:36.548Z,99.900002
2018-09-25T20:48:38.603Z,99.900002
2018-09-25T20:53:41.095Z,99.900002
2018-09-25T20:58:43.232Z,99.900002
2018-09-25T21:03:45.628Z,99.900002
2018-09-25T21:08:47.828Z,99.300003
2018-09-25T21:13:50.124Z,97.900002
2018-09-25T21:18:52.552Z,96.400002
2018-09-25T21:23:54.782Z,94.5
2018-09-25T21:28:57.003Z,91
2018-09-25T21:33:59.363Z,89.400002
2018-09-25T21:39:01.668Z,88.900002
2018-09-25T21:44:03.876Z,88
2018-09-25T21:49:06.129Z,88
2018-09-25T21:54:08.460Z,86.300003
2018-09-25T21:59:10.948Z,86.900002
2018-09-25T22:04:13.133Z,85.900002
2018-09-25T22:09:15.351Z,87.5
2018-09-25T22:14:17.605Z,86.5
2018-09-25T22:19:19.845Z,88
2018-09-25T22:24:22.251Z,87.300003
2018-09-25T22:29:24.449Z,87
2018-09-25T22:34:26.834Z,89.099998
2018-09-25T22:39:29.273Z,91.300003
2018-09-25T22:44:31.532Z,93.599998
2018-09-25T22:49:33.731Z,96.400002
2018-09-25T22:54:36.072Z,99.099998
2018-09-25T22:59:38.232Z,99.699997
2018-09-25T23:04:40.596Z,99.900002
2018-09-25T23:09:42.834Z,96.699997
2018-09-25T23:14:45.226Z,98.099998
2018-09-25T23:19:47.453Z,96.900002
2018-09-25T23:24:49.740Z,98.5
2018-09-25T23:29:52.075Z,99.900002
2018-09-25T23:34:54.359Z,99.900002
2018-09-25T23:39:56.724Z,99
2018-09-25T23:44:59.030Z,99.5
2018-09-25T23:50:01.280Z,99.900002
2018-09-25T23:55:03.541Z,98.900002
